createdAt,value
2022-10-07T00:03:39.297Z,12
2022-10-07T00:08:51.818Z,11.89
2022-10-07T00:14:03.906Z,11.75
2022-10-07T00:19:16.275Z,11.67
2022-10-07T00:24:28.867Z,11.55
2022-10-07T00:29:41.003Z,11.45
2022-10-07T00:34:53.456Z,11.47
2022-10-07T00:40:05.704Z,11.64
2022-10-07T00:45:18.184Z,11.73
2022-10-07T00:50:30.575Z,11.88
2022-10-07T00:55:43.021Z,12.05
2022-10-07T01:00:55.145Z,12
2022-10-07T01:06:07.685Z,11.78
2022-10-07T01:11:20.072Z,11.65
2022-10-07T01:16:32.292Z,11.66
2022-10-07T01:21:44.561Z,11.65
2022-10-07T01:26:56.749Z,11.64
2022-10-07T01:32:09.193Z,11.73
2022-10-07T01:37:21.433Z,11.78
2022-10-07T01:42:33.680Z,11.82
2022-10-07T01:47:46.338Z,11.79
2022-10-07T01:52:58.479Z,11.72
2022-10-07T01:58:10.651Z,11.67
2022-10-07T02:03:23.195Z,11.69
2022-10-07T02:08:35.451Z,11.69
2022-10-07T02:13:47.655Z,11.65
2022-10-07T02:18:59.843Z,11.49
2022-10-07T02:24:12.179Z,11.53
2022-10-07T02:29:24.441Z,11.49
2022-10-07T02:34:36.840Z,11.48
2022-10-07T02:39:49.191Z,11.42
2022-10-07T02:45:01.405Z,11.41
2022-10-07T02:50:13.921Z,11.34
2022-10-07T02:55:26.396Z,11.39
2022-10-07T03:00:38.545Z,11.38
2022-10-07T03:05:50.899Z,11.24
2022-10-07T03:11:03.244Z,11.16
2022-10-07T03:16:15.826Z,11.11
2022-10-07T03:21:27.965Z,11.09
2022-10-07T03:26:40.307Z,11.11
2022-10-07T03:31:52.823Z,11.12
2022-10-07T03:37:05.013Z,11.13
2022-10-07T03:42:17.429Z,11.08
2022-10-07T03:47:29.791Z,11.05
2022-10-07T03:52:42.430Z,11.09
2022-10-07T03:57:59.222Z,11.07
2022-10-07T04:03:07.165Z,11.04
2022-10-07T04:08:19.701Z,11.04
2022-10-07T04:13:32.082Z,10.93
2022-10-07T04:18:44.656Z,10.86
2022-10-07T04:23:56.966Z,10.82
2022-10-07T04:29:09.416Z,10.81
2022-10-07T04:34:21.547Z,10.76
2022-10-07T04:39:56.385Z,10.69
2022-10-07T04:44:46.510Z,10.63
2022-10-07T04:49:58.373Z,10.57
2022-10-07T04:55:10.834Z,10.55
2022-10-07T05:00:23.367Z,10.54
2022-10-07T05:05:35.656Z,10.54
2022-10-07T05:10:47.884Z,10.52
2022-10-07T05:16:00.196Z,10.51
2022-10-07T05:21:12.507Z,10.51
2022-10-07T05:26:24.959Z,10.51
2022-10-07T05:31:37.193Z,10.49
2022-10-07T05:36:49.493Z,10.49
2022-10-07T05:42:01.933Z,10.5
2022-10-07T05:47:14.284Z,10.43
2022-10-07T05:52:26.638Z,10.32
2022-10-07T05:57:39.156Z,10.29
2022-10-07T06:02:51.841Z,10.31
2022-10-07T06:08:04.065Z,10.38
2022-10-07T06:13:16.478Z,10.49
2022-10-07T06:18:28.947Z,10.56
2022-10-07T06:23:41.231Z,10.62
2022-10-07T06:28:53.667Z,10.67
2022-10-07T06:34:06.108Z,10.76
2022-10-07T06:39:18.411Z,10.84
2022-10-07T06:44:30.891Z,10.91
2022-10-07T06:49:43.388Z,10.96
2022-10-07T06:54:55.800Z,11.03
2022-10-07T07:00:08.204Z,11.1
2022-10-07T07:05:20.571Z,11.13
2022-10-07T07:10:32.956Z,11.13
2022-10-07T07:15:45.585Z,11.16
2022-10-07T07:20:57.993Z,11.33
2022-10-07T07:26:10.320Z,11.45
2022-10-07T07:31:22.962Z,11.59
2022-10-07T07:36:35.310Z,11.68
2022-10-07T07:41:47.758Z,11.79
2022-10-07T07:46:59.877Z,11.89
2022-10-07T07:52:12.249Z,12
2022-10-07T08:02:36.772Z,12.26
2022-10-07T08:07:49.179Z,12.44
2022-10-07T08:13:01.425Z,12.56
2022-10-07T08:18:13.666Z,12.74
2022-10-07T08:23:26.543Z,12.86
2022-10-07T08:28:39.071Z,13.06
2022-10-07T08:33:51.360Z,13.29
2022-10-07T08:39:03.596Z,13.39
2022-10-07T08:44:16.974Z,13.6
2022-10-07T08:49:28.430Z,13.82
2022-10-07T08:54:40.784Z,14.03
2022-10-07T08:59:53.199Z,14.3
2022-10-07T09:05:05.653Z,14.56
2022-10-07T09:10:18.043Z,14.71
2022-10-07T09:15:30.396Z,14.95
2022-10-07T09:20:42.865Z,15.2
2022-10-07T09:25:55.300Z,15.42
2022-10-07T09:31:07.914Z,15.75
2022-10-07T09:36:20.666Z,16.07
2022-10-07T09:41:33.111Z,16.43
2022-10-07T09:46:45.409Z,16.53
2022-10-07T09:51:57.762Z,16.62
2022-10-07T09:57:10.198Z,16.9
2022-10-07T10:02:22.811Z,17.23
2022-10-07T10:07:34.915Z,17.56
2022-10-07T10:12:47.684Z,17.78
2022-10-07T10:17:59.855Z,17.99
2022-10-07T10:23:12.179Z,18.28
2022-10-07T10:28:24.821Z,18.53
2022-10-07T10:33:37.022Z,18.66
2022-10-07T10:38:49.365Z,18.81
2022-10-07T10:44:01.914Z,19.17
2022-10-07T10:49:14.413Z,19.62
2022-10-07T10:54:26.534Z,19.49
2022-10-07T10:59:38.863Z,19.45
2022-10-07T11:04:51.514Z,19.99
2022-10-07T11:10:03.693Z,20.33
2022-10-07T11:15:16.158Z,20.15
2022-10-07T11:20:28.574Z,20.27
2022-10-07T11:25:40.925Z,20.52
2022-10-07T11:30:53.282Z,20.74
2022-10-07T11:36:05.680Z,20.88
2022-10-07T11:41:19.305Z,21.16
2022-10-07T11:46:31.823Z,21.54
2022-10-07T11:51:44.245Z,21.75
2022-10-07T11:56:56.890Z,21.97
2022-10-07T12:02:09.244Z,22.16
2022-10-07T12:07:21.548Z,22.16
2022-10-07T12:12:33.955Z,22.26
2022-10-07T12:17:46.334Z,22.03
2022-10-07T12:22:58.734Z,22.24
2022-10-07T12:28:11.353Z,22.78
2022-10-07T12:33:23.774Z,23.18
2022-10-07T12:38:35.980Z,23.28
2022-10-07T12:43:48.356Z,23.55
2022-10-07T12:49:00.551Z,23.83
2022-10-07T12:54:13.046Z,24.15
2022-10-07T12:59:25.739Z,24.53
2022-10-07T13:04:38.869Z,24.81
2022-10-07T13:09:51.551Z,24.89
2022-10-07T13:15:03.882Z,25.03
2022-10-07T13:20:16.211Z,25.17
2022-10-07T13:25:28.576Z,25.4
2022-10-07T13:30:40.858Z,25.37
2022-10-07T13:35:53.196Z,25.49
2022-10-07T13:41:05.305Z,25.67
2022-10-07T13:46:19.125Z,25.89
2022-10-07T13:51:32.102Z,25.84
2022-10-07T13:56:45.015Z,25.88
2022-10-07T14:01:57.697Z,26.11
2022-10-07T14:07:09.719Z,25.79
2022-10-07T14:12:21.876Z,25.03
2022-10-07T14:17:34.422Z,25.44
2022-10-07T14:22:47.513Z,26.09
2022-10-07T14:27:59.814Z,26.52
2022-10-07T14:33:12.080Z,26.63
2022-10-07T14:38:24.639Z,26.53
2022-10-07T14:43:37.047Z,26.65
2022-10-07T14:48:49.182Z,26.28
2022-10-07T14:54:01.536Z,26.59
2022-10-07T14:59:13.821Z,26.68
2022-10-07T15:04:25.971Z,25.59
2022-10-07T15:09:38.240Z,25.6
2022-10-07T15:14:50.690Z,25.41
2022-10-07T15:20:03.155Z,25.42
2022-10-07T15:25:15.988Z,25.69
2022-10-07T15:30:28.470Z,26.06
2022-10-07T15:35:40.919Z,26
2022-10-07T15:40:53.171Z,25.56
2022-10-07T15:46:05.440Z,25.54
2022-10-07T15:51:17.877Z,25.59
2022-10-07T15:56:30.460Z,25.59
2022-10-07T16:01:42.866Z,25.14
2022-10-07T16:06:55.060Z,24.8
2022-10-07T16:12:07.486Z,24.58
2022-10-07T16:17:19.570Z,24.17
2022-10-07T16:22:31.906Z,23.63
2022-10-07T16:27:44.413Z,23.06
2022-10-07T16:32:56.252Z,22.56
2022-10-07T16:38:08.574Z,22.11
2022-10-07T16:43:21.131Z,21.68
2022-10-07T16:48:34.332Z,21.34
2022-10-07T16:53:46.552Z,21.16
2022-10-07T16:58:58.990Z,20.96
2022-10-07T17:04:11.965Z,20.77
2022-10-07T17:09:24.151Z,20.49
2022-10-07T17:14:36.403Z,20.1
2022-10-07T17:19:48.606Z,19.82
2022-10-07T17:30:13.368Z,19.65
2022-10-07T17:35:25.521Z,19.53
2022-10-07T17:40:37.986Z,19.45
2022-10-07T17:45:50.350Z,19.36
2022-10-07T17:51:02.793Z,19.23
2022-10-07T17:56:15.172Z,19.08
2022-10-07T18:01:27.578Z,18.93
2022-10-07T18:06:39.789Z,18.78
2022-10-07T18:11:52.112Z,18.67
2022-10-07T18:17:04.269Z,18.54
2022-10-07T18:22:16.487Z,18.39
2022-10-07T18:27:28.716Z,18.26
2022-10-07T18:32:41.043Z,18.13
2022-10-07T18:37:53.359Z,17.99
2022-10-07T18:43:05.540Z,17.83
2022-10-07T18:53:30.106Z,17.59
2022-10-07T18:58:42.506Z,17.48
2022-10-07T19:03:54.850Z,17.38
2022-10-07T19:09:07.170Z,17.34
2022-10-07T19:14:19.402Z,17.18
2022-10-07T19:19:31.702Z,16.95
2022-10-07T19:24:44.149Z,16.85
2022-10-07T19:29:56.480Z,16.87
2022-10-07T19:35:08.909Z,16.8
2022-10-07T19:40:21.008Z,16.59
2022-10-07T19:45:33.474Z,16.42
2022-10-07T19:50:45.897Z,16.17
2022-10-07T19:55:58.308Z,15.98
2022-10-07T20:01:10.473Z,15.88
2022-10-07T20:06:22.660Z,15.9
2022-10-07T20:11:35.063Z,15.92
2022-10-07T20:16:47.535Z,15.9
2022-10-07T20:21:59.480Z,15.9
2022-10-07T20:27:11.771Z,15.98
2022-10-07T20:32:24.146Z,16
2022-10-07T20:37:36.598Z,15.95
2022-10-07T20:42:49.157Z,15.88
2022-10-07T20:48:01.024Z,15.73
2022-10-07T20:53:13.255Z,15.64
2022-10-07T20:58:25.969Z,15.6
2022-10-07T21:03:38.410Z,15.46
2022-10-07T21:08:50.858Z,15.28
2022-10-07T21:14:03.091Z,15.18
2022-10-07T21:19:15.575Z,15.14
2022-10-07T21:24:27.947Z,15.15
2022-10-07T21:29:41.140Z,15.17
2022-10-07T21:34:52.748Z,15.15
2022-10-07T21:40:05.096Z,15.13
2022-10-07T21:45:17.272Z,15.2
2022-10-07T21:50:29.637Z,15.19
2022-10-07T21:55:41.974Z,15.13
2022-10-07T22:00:54.123Z,15.02
2022-10-07T22:06:06.543Z,14.92
2022-10-07T22:11:18.923Z,14.83
2022-10-07T22:16:31.190Z,14.77
2022-10-07T22:21:43.550Z,14.69
2022-10-07T22:26:55.997Z,14.58
2022-10-07T22:32:08.176Z,14.48
2022-10-07T22:37:20.618Z,14.38
2022-10-07T22:42:33.082Z,14.26
2022-10-07T22:47:45.249Z,14.24
2022-10-07T22:52:57.459Z,14.24
2022-10-07T22:58:09.843Z,14.2
2022-10-07T23:03:22.288Z,14.26
2022-10-07T23:08:34.672Z,14.38
2022-10-07T23:13:47.116Z,14.48
2022-10-07T23:18:59.511Z,14.52
2022-10-07T23:24:12.040Z,14.49
2022-10-07T23:29:24.496Z,14.45
2022-10-07T23:34:36.894Z,14.42
2022-10-07T23:39:49.123Z,14.35
2022-10-07T23:45:01.502Z,14.19
2022-10-07T23:50:13.762Z,14.15
2022-10-07T23:55:26.339Z,14.16
